Monroe, Utah
Current Conditions -  °F | °C
As of 10:52 AM on Monday 26 Jan 2015 (Local Time) from KMLF Reporting Station
Clear Clear  
Wind Chill: 39°   Ceiling: Unl
Heat Index: 42°   Visibility: 10mi
Dew Point: 32°   Wind: 5mph
Humidity: 67%   Direction: 10°N
Pressure: 30.34"   Gusts: NA
Location:  38.63°N, 112.12°W
Report Text: KMLF 261752Z AUTO 01004KT 10SM CLR 06/00 A3034 RMK AO2 SLP275 I6000 T00560000 10056 21056 56006 TSNO $
Loading
Personal Weather Stations






























Interactive Weather Map New forecast layout! Learn more

10-Day Weather Forecast

Advertisements
Track Severe Weather on mobile